createdAt,value
2022-09-24T00:01:39.046Z,15.94
2022-09-24T00:04:11.678Z,15.93
2022-09-24T00:06:44.524Z,15.99
2022-09-24T00:09:15.137Z,16.00
2022-09-24T00:11:46.019Z,15.90
2022-09-24T00:14:19.200Z,15.88
2022-09-24T00:16:50.076Z,15.86
2022-09-24T00:19:19.710Z,15.86
2022-09-24T00:21:49.342Z,15.84
2022-09-24T00:24:32.773Z,15.91
2022-09-24T00:27:03.168Z,15.88
2022-09-24T00:29:36.241Z,15.97
2022-09-24T00:32:06.522Z,15.96
2022-09-24T00:34:36.401Z,15.97
2022-09-24T00:37:06.110Z,15.97
2022-09-24T00:39:35.764Z,16.00
2022-09-24T00:42:05.416Z,16.00
2022-09-24T00:44:54.814Z,15.99
2022-09-24T00:47:35.252Z,15.91
2022-09-24T00:50:15.678Z,15.85
2022-09-24T00:52:49.698Z,15.70
2022-09-24T00:55:23.728Z,15.77
2022-09-24T00:57:57.739Z,15.82
2022-09-24T01:00:30.357Z,15.79
2022-09-24T01:03:05.095Z,15.73
2022-09-24T01:05:35.319Z,15.67
2022-09-24T01:08:05.415Z,15.66
2022-09-24T01:10:54.042Z,15.65
2022-09-24T01:13:36.578Z,15.66
2022-09-24T01:16:19.645Z,15.65
2022-09-24T01:18:58.132Z,15.61
2022-09-24T01:21:35.112Z,15.52
2022-09-24T01:24:26.549Z,15.51
2022-09-24T01:27:08.742Z,15.39
2022-09-24T01:29:52.431Z,15.25
2022-09-24T01:32:32.192Z,15.37
2022-09-24T01:35:06.756Z,15.34
2022-09-24T01:37:39.068Z,15.31
2022-09-24T01:40:12.154Z,15.35
2022-09-24T01:42:45.399Z,15.40
2022-09-24T01:45:19.863Z,15.36
2022-09-24T01:47:50.204Z,15.47
2022-09-24T01:50:22.821Z,15.54
2022-09-24T01:52:58.687Z,15.56
2022-09-24T01:55:31.336Z,15.48
2022-09-24T01:58:04.945Z,15.21
2022-09-24T02:00:40.857Z,15.35
2022-09-24T02:03:14.029Z,15.42
2022-09-24T02:05:49.984Z,15.46
2022-09-24T02:08:22.768Z,15.40
2022-09-24T02:10:58.205Z,15.46
2022-09-24T02:13:32.314Z,15.43
2022-09-24T02:16:06.702Z,15.31
2022-09-24T02:18:41.800Z,15.38
2022-09-24T02:21:14.051Z,15.43
2022-09-24T02:23:50.683Z,15.43
2022-09-24T02:26:20.427Z,15.41
2022-09-24T02:28:50.292Z,15.42
2022-09-24T02:31:27.520Z,15.47
2022-09-24T02:34:11.017Z,15.42
2022-09-24T02:36:41.961Z,15.40
2022-09-24T02:39:11.590Z,15.38
2022-09-24T02:41:42.680Z,15.44
2022-09-24T02:44:12.748Z,15.41
2022-09-24T02:46:45.056Z,15.41
2022-09-24T02:49:15.701Z,15.26
2022-09-24T02:51:46.601Z,15.26
2022-09-24T02:54:16.282Z,15.34
2022-09-24T02:56:45.948Z,15.27
2022-09-24T02:59:15.568Z,15.23
2022-09-24T03:01:48.098Z,15.34
2022-09-24T03:04:18.230Z,15.23
2022-09-24T03:06:47.921Z,15.28
2022-09-24T03:09:17.636Z,15.26
2022-09-24T03:11:47.422Z,15.17
2022-09-24T03:14:17.062Z,15.28
2022-09-24T03:16:49.285Z,15.21
2022-09-24T03:19:18.898Z,15.15
2022-09-24T03:21:48.549Z,15.14
2022-09-24T03:24:18.202Z,15.23
2022-09-24T03:26:47.982Z,15.18
2022-09-24T03:29:37.636Z,15.11
2022-09-24T03:32:07.313Z,15.03
2022-09-24T03:34:36.943Z,14.95
2022-09-24T03:37:07.111Z,15.09
2022-09-24T03:39:36.746Z,15.15
2022-09-24T03:42:06.609Z,15.14
2022-09-24T03:44:36.257Z,15.11
2022-09-24T03:47:05.899Z,15.06
2022-09-24T03:49:38.116Z,15.00
2022-09-24T03:52:07.761Z,15.22
2022-09-24T03:54:37.373Z,15.23
2022-09-24T03:57:07.074Z,15.23
2022-09-24T03:59:36.721Z,15.20
2022-09-24T04:02:06.388Z,15.18
2022-09-24T04:04:38.670Z,15.18
2022-09-24T04:07:08.914Z,15.00
2022-09-24T04:09:38.577Z,14.96
2022-09-24T04:12:08.307Z,15.07
2022-09-24T04:14:37.948Z,15.10
2022-09-24T04:17:07.690Z,15.10
2022-09-24T04:19:40.518Z,15.13
2022-09-24T04:22:10.231Z,14.72
2022-09-24T04:24:40.573Z,14.87
2022-09-24T04:27:10.188Z,14.90
2022-09-24T04:29:39.822Z,14.85
2022-09-24T04:32:09.481Z,14.85
2022-09-24T04:34:41.694Z,14.87
2022-09-24T04:37:11.945Z,14.76
2022-09-24T04:39:41.924Z,14.97
2022-09-24T04:42:11.569Z,15.05
2022-09-24T04:44:41.183Z,15.07
2022-09-24T04:47:11.564Z,14.99
2022-09-24T04:49:46.452Z,15.06
2022-09-24T04:52:17.566Z,15.05
2022-09-24T04:54:48.225Z,15.09
2022-09-24T04:57:17.837Z,14.98
2022-09-24T04:59:47.725Z,15.03
2022-09-24T05:02:18.696Z,15.06
2022-09-24T05:04:51.063Z,15.07
2022-09-24T05:07:20.766Z,14.92
2022-09-24T05:09:50.444Z,14.88
2022-09-24T05:12:20.609Z,14.99
2022-09-24T05:14:50.405Z,14.95
2022-09-24T05:17:20.495Z,14.87
2022-09-24T05:19:52.735Z,14.93
2022-09-24T05:22:22.383Z,14.96
2022-09-24T05:24:52.040Z,14.97
2022-09-24T05:27:21.795Z,15.02
2022-09-24T05:29:51.781Z,14.98
2022-09-24T05:32:22.775Z,14.95
2022-09-24T05:34:55.200Z,14.96
2022-09-24T05:37:24.872Z,14.96
2022-09-24T05:39:54.904Z,14.93
2022-09-24T05:42:24.639Z,14.97
2022-09-24T05:44:54.329Z,14.97
2022-09-24T05:47:24.001Z,15.00
2022-09-24T05:49:56.339Z,14.95
2022-09-24T05:52:26.089Z,14.97
2022-09-24T05:54:56.505Z,14.97
2022-09-24T05:57:26.158Z,14.89
2022-09-24T05:59:56.114Z,14.94
2022-09-24T06:02:25.941Z,14.91
2022-09-24T06:04:58.238Z,14.87
2022-09-24T06:07:27.961Z,14.90
2022-09-24T06:09:59.252Z,14.69
2022-09-24T06:12:29.016Z,14.93
2022-09-24T06:14:58.691Z,14.87
2022-09-24T06:17:28.796Z,14.91
2022-09-24T06:20:01.074Z,14.95
2022-09-24T06:22:30.921Z,14.83
2022-09-24T06:25:00.615Z,14.79
2022-09-24T06:27:30.317Z,14.72
2022-09-24T06:30:00.106Z,14.65
2022-09-24T06:32:29.894Z,14.68
2022-09-24T06:35:02.157Z,14.66
2022-09-24T06:37:31.849Z,14.58
2022-09-24T06:40:01.551Z,14.68
2022-09-24T06:42:31.282Z,14.63
2022-09-24T06:45:00.945Z,14.72
2022-09-24T06:47:33.865Z,14.78
2022-09-24T06:50:06.762Z,14.85
2022-09-24T06:52:37.770Z,14.95
2022-09-24T06:55:08.600Z,15.05
2022-09-24T06:57:38.329Z,15.07
2022-09-24T07:00:09.474Z,15.08
2022-09-24T07:02:39.390Z,15.08
2022-09-24T07:05:12.699Z,14.92
2022-09-24T07:07:42.854Z,14.93
2022-09-24T07:10:13.437Z,14.93
2022-09-24T07:12:44.839Z,14.93
2022-09-24T07:15:14.606Z,14.97
2022-09-24T07:17:45.368Z,14.99
2022-09-24T07:20:17.671Z,15.08
2022-09-24T07:22:47.421Z,14.91
2022-09-24T07:25:17.228Z,14.89
2022-09-24T07:27:46.948Z,14.99
2022-09-24T07:30:17.239Z,15.05
2022-09-24T07:32:47.020Z,15.30
2022-09-24T07:35:21.135Z,15.21
2022-09-24T07:37:50.835Z,15.30
2022-09-24T07:40:22.177Z,15.28
2022-09-24T07:42:51.970Z,15.39
2022-09-24T07:45:21.662Z,15.69
2022-09-24T07:47:51.396Z,15.53
2022-09-24T07:50:23.899Z,15.55
2022-09-24T07:52:53.701Z,15.58
2022-09-24T07:55:23.476Z,15.59
2022-09-24T07:57:55.168Z,15.54
2022-09-24T08:00:26.805Z,15.34
2022-09-24T08:02:56.597Z,15.49
2022-09-24T08:05:28.998Z,15.39
2022-09-24T08:07:59.900Z,15.46
2022-09-24T08:10:30.724Z,15.39
2022-09-24T08:13:04.257Z,15.36
2022-09-24T08:15:33.957Z,15.46
2022-09-24T08:18:07.715Z,15.47
2022-09-24T08:20:40.850Z,15.46
2022-09-24T08:23:12.775Z,15.50
2022-09-24T08:25:42.499Z,15.59
2022-09-24T08:28:13.430Z,15.42
2022-09-24T08:30:43.268Z,15.38
2022-09-24T08:33:13.483Z,15.46
2022-09-24T08:35:45.872Z,15.47
2022-09-24T08:38:15.648Z,15.49
2022-09-24T08:40:49.444Z,15.42
2022-09-24T08:43:35.554Z,15.49
2022-09-24T08:46:27.319Z,15.41
2022-09-24T08:48:58.337Z,15.43
2022-09-24T08:51:38.100Z,15.75
2022-09-24T08:54:12.455Z,15.83
2022-09-24T08:56:46.841Z,15.96
2022-09-24T08:59:27.207Z,15.87
2022-09-24T09:02:13.513Z,16.01
2022-09-24T09:04:55.419Z,17.17
2022-09-24T09:07:33.851Z,16.28
2022-09-24T09:10:06.211Z,16.05
2022-09-24T09:12:40.952Z,16.02
2022-09-24T09:15:16.360Z,15.98
2022-09-24T09:17:50.768Z,16.04
2022-09-24T09:20:23.849Z,16.12
2022-09-24T09:22:56.185Z,16.27
2022-09-24T09:25:28.582Z,16.59
2022-09-24T09:28:03.134Z,16.66
2022-09-24T09:30:43.802Z,16.70
2022-09-24T09:33:31.067Z,16.69
2022-09-24T09:36:18.304Z,16.64
2022-09-24T09:38:57.365Z,16.65
2022-09-24T09:41:36.533Z,16.72
2022-09-24T09:44:16.064Z,16.73
2022-09-24T09:46:54.016Z,16.71
2022-09-24T09:49:25.546Z,16.89
2022-09-24T09:51:59.814Z,17.01
2022-09-24T09:54:42.108Z,16.93
2022-09-24T09:57:18.228Z,17.10
2022-09-24T09:59:50.003Z,16.91
2022-09-24T10:02:30.342Z,16.97
2022-09-24T10:05:02.282Z,16.97
2022-09-24T10:07:32.437Z,17.05
2022-09-24T10:10:19.249Z,17.04
2022-09-24T10:12:49.133Z,17.00
2022-09-24T10:15:20.997Z,17.03
2022-09-24T10:17:53.371Z,16.94
2022-09-24T10:20:27.785Z,16.84
2022-09-24T10:23:00.722Z,17.03
2022-09-24T10:25:36.305Z,17.03
2022-09-24T10:28:26.367Z,17.07
2022-09-24T10:30:59.580Z,17.13
2022-09-24T10:33:30.193Z,17.09
2022-09-24T10:36:08.195Z,17.08
2022-09-24T10:38:38.001Z,16.88
2022-09-24T10:41:19.901Z,17.06
2022-09-24T10:43:56.184Z,17.09
2022-09-24T10:47:00.131Z,17.20
2022-09-24T10:49:43.550Z,17.21
2022-09-24T10:52:28.189Z,17.22
2022-09-24T10:55:08.291Z,17.15
2022-09-24T10:57:49.518Z,17.26
2022-09-24T11:00:22.777Z,17.21
2022-09-24T11:03:08.308Z,17.15
2022-09-24T11:05:45.058Z,17.04
2022-09-24T11:08:26.340Z,17.13
2022-09-24T11:11:10.231Z,17.20
2022-09-24T11:13:51.747Z,17.17
2022-09-24T11:16:47.486Z,17.11
2022-09-24T11:19:30.298Z,17.27
2022-09-24T11:22:12.299Z,17.10
2022-09-24T11:25:05.674Z,17.24
2022-09-24T11:27:48.041Z,17.18
2022-09-24T11:30:22.629Z,17.16
2022-09-24T11:33:09.562Z,17.09
2022-09-24T11:35:59.652Z,17.14
2022-09-24T11:38:42.668Z,17.11
2022-09-24T11:41:25.684Z,17.10
2022-09-24T11:44:18.745Z,17.05
2022-09-24T11:47:06.169Z,16.94
2022-09-24T11:49:49.848Z,17.08
2022-09-24T11:52:31.791Z,16.95
2022-09-24T11:55:07.633Z,17.03
2022-09-24T11:57:42.235Z,17.00
2022-09-24T12:00:18.126Z,16.99
2022-09-24T12:02:53.524Z,17.07
2022-09-24T12:05:32.153Z,16.85
2022-09-24T12:08:07.880Z,17.14
2022-09-24T12:10:46.175Z,17.08
2022-09-24T12:13:21.396Z,17.06
2022-09-24T12:15:56.414Z,17.05
2022-09-24T12:18:32.311Z,17.16
2022-09-24T12:21:07.265Z,17.37
2022-09-24T12:23:42.755Z,17.46
2022-09-24T12:26:16.393Z,17.42
2022-09-24T12:29:08.262Z,17.46
2022-09-24T12:31:59.026Z,17.43
2022-09-24T12:34:43.398Z,17.57
2022-09-24T12:37:18.274Z,17.54
2022-09-24T12:39:53.098Z,17.47
2022-09-24T12:42:26.047Z,17.44
2022-09-24T12:45:00.879Z,17.42
2022-09-24T12:47:33.875Z,17.34
2022-09-24T12:50:09.245Z,17.37
2022-09-24T12:52:43.009Z,17.29
2022-09-24T12:55:23.718Z,17.46
2022-09-24T12:57:56.955Z,17.37
2022-09-24T13:00:41.253Z,17.46
2022-09-24T13:03:33.876Z,17.40
2022-09-24T13:06:21.365Z,17.36
2022-09-24T13:08:51.179Z,17.48
2022-09-24T13:11:37.478Z,17.49
2022-09-24T13:14:21.728Z,17.46
2022-09-24T13:16:54.226Z,17.37
2022-09-24T13:19:29.194Z,17.42
2022-09-24T13:22:03.025Z,17.35
2022-09-24T13:24:48.426Z,17.29
2022-09-24T13:27:27.371Z,17.37
2022-09-24T13:30:08.518Z,17.33
2022-09-24T13:32:43.775Z,17.03
2022-09-24T13:35:23.711Z,17.29
2022-09-24T13:38:04.023Z,17.38
2022-09-24T13:40:40.004Z,17.35
2022-09-24T13:43:17.437Z,17.04
2022-09-24T13:45:48.190Z,17.17
2022-09-24T13:48:28.240Z,17.30
2022-09-24T13:50:59.048Z,17.19
2022-09-24T13:53:36.525Z,17.11
2022-09-24T13:56:09.436Z,16.96
2022-09-24T13:58:41.755Z,16.95
2022-09-24T14:01:17.151Z,17.02
2022-09-24T14:03:56.175Z,17.06
2022-09-24T14:06:37.682Z,17.02
2022-09-24T14:09:30.149Z,17.11
2022-09-24T14:12:02.882Z,17.06
2022-09-24T14:14:38.039Z,17.01
2022-09-24T14:17:12.333Z,16.96
2022-09-24T14:19:46.274Z,17.03
2022-09-24T14:22:23.592Z,17.03
2022-09-24T14:25:03.192Z,17.08
2022-09-24T14:27:41.944Z,17.16
2022-09-24T14:30:22.300Z,17.25
2022-09-24T14:32:58.572Z,17.02
2022-09-24T14:35:34.171Z,17.03
2022-09-24T14:38:08.971Z,17.11
2022-09-24T14:40:47.738Z,17.06
2022-09-24T14:43:21.638Z,17.06
2022-09-24T14:45:53.798Z,16.99
2022-09-24T14:48:31.184Z,16.74
2022-09-24T14:51:01.576Z,16.86
2022-09-24T14:53:36.108Z,16.87
2022-09-24T14:56:23.221Z,16.70
2022-09-24T14:58:53.377Z,16.71
2022-09-24T15:01:26.873Z,16.66
2022-09-24T15:04:00.416Z,16.58
2022-09-24T15:06:32.239Z,16.41
2022-09-24T15:09:03.851Z,16.30
2022-09-24T15:11:43.886Z,16.21
2022-09-24T15:14:27.310Z,16.26
2022-09-24T15:16:58.273Z,15.96
2022-09-24T15:19:30.965Z,16.08
2022-09-24T15:22:02.785Z,15.98
2022-09-24T15:24:32.654Z,16.07
2022-09-24T15:27:07.567Z,16.13
2022-09-24T15:29:37.328Z,16.20
2022-09-24T15:32:17.728Z,16.26
2022-09-24T15:34:48.430Z,16.24
2022-09-24T15:37:20.906Z,16.24
2022-09-24T15:39:51.401Z,16.30
2022-09-24T15:42:26.189Z,16.33
2022-09-24T15:44:56.600Z,16.33
2022-09-24T15:47:26.331Z,16.37
2022-09-24T15:49:57.072Z,16.36
2022-09-24T15:52:29.221Z,16.38
2022-09-24T15:55:00.854Z,16.36
2022-09-24T15:57:33.184Z,16.30
2022-09-24T16:00:02.864Z,16.22
2022-09-24T16:02:36.325Z,16.26
2022-09-24T16:05:06.536Z,16.13
2022-09-24T16:07:36.299Z,16.10
2022-09-24T16:10:06.798Z,16.15
2022-09-24T16:12:39.378Z,16.09
2022-09-24T16:15:10.707Z,16.00
2022-09-24T16:17:41.099Z,16.09
2022-09-24T16:20:11.629Z,16.00
2022-09-24T16:22:41.342Z,15.98
2022-09-24T16:25:11.318Z,16.05
2022-09-24T16:27:44.050Z,15.91
2022-09-24T16:30:14.209Z,15.69
2022-09-24T16:32:43.954Z,15.94
2022-09-24T16:35:13.818Z,15.90
2022-09-24T16:37:44.122Z,15.93
2022-09-24T16:40:16.046Z,15.94
2022-09-24T16:42:48.317Z,15.95
2022-09-24T16:45:18.316Z,15.98
2022-09-24T16:47:48.978Z,15.92
2022-09-24T16:50:23.667Z,15.99
2022-09-24T16:52:55.347Z,16.02
2022-09-24T16:55:26.829Z,15.98
2022-09-24T16:58:01.121Z,15.95
2022-09-24T17:00:30.836Z,16.02
2022-09-24T17:03:00.763Z,15.71
2022-09-24T17:05:33.942Z,15.65
2022-09-24T17:08:04.071Z,16.14
2022-09-24T17:10:31.485Z,16.15
2022-09-24T17:13:03.826Z,16.10
2022-09-24T17:15:34.357Z,16.23
2022-09-24T17:18:05.270Z,16.16
2022-09-24T17:20:35.905Z,16.15
2022-09-24T17:23:08.153Z,16.07
2022-09-24T17:25:38.781Z,16.13
2022-09-24T17:28:12.378Z,16.12
2022-09-24T17:30:46.291Z,15.99
2022-09-24T17:33:41.819Z,15.95
2022-09-24T17:36:11.114Z,16.00
2022-09-24T17:38:42.657Z,16.15
2022-09-24T17:41:16.162Z,16.16
2022-09-24T17:43:49.306Z,16.27
2022-09-24T17:46:25.150Z,16.18
2022-09-24T17:48:58.871Z,16.02
2022-09-24T17:51:32.655Z,16.33
2022-09-24T17:54:04.052Z,16.38
2022-09-24T17:56:38.810Z,16.33
2022-09-24T17:59:13.402Z,16.32
2022-09-24T18:01:45.632Z,16.29
2022-09-24T18:04:17.379Z,16.29
2022-09-24T18:06:48.473Z,16.25
2022-09-24T18:09:20.053Z,16.25
2022-09-24T18:11:51.654Z,16.27
2022-09-24T18:14:26.423Z,16.17
2022-09-24T18:16:56.486Z,16.17
2022-09-24T18:19:27.438Z,16.19
2022-09-24T18:21:59.276Z,16.16
2022-09-24T18:24:29.141Z,16.14
2022-09-24T18:26:59.019Z,16.42
2022-09-24T18:29:32.901Z,16.20
2022-09-24T18:32:02.647Z,16.16
2022-09-24T18:34:32.537Z,16.00
2022-09-24T18:37:02.229Z,16.04
2022-09-24T18:39:31.950Z,16.04
2022-09-24T18:42:01.649Z,16.03
2022-09-24T18:44:34.112Z,16.02
2022-09-24T18:47:03.745Z,15.86
2022-09-24T18:49:33.513Z,16.06
2022-09-24T18:52:03.575Z,16.02
2022-09-24T18:54:33.462Z,15.94
2022-09-24T18:57:03.196Z,16.04
2022-09-24T18:59:44.377Z,16.13
2022-09-24T19:02:15.091Z,15.99
2022-09-24T19:04:45.948Z,15.96
2022-09-24T19:07:16.577Z,16.02
2022-09-24T19:09:46.752Z,15.96
2022-09-24T19:12:16.408Z,15.87
2022-09-24T19:14:49.783Z,16.20
2022-09-24T19:17:19.591Z,16.17
2022-09-24T19:19:52.467Z,16.25
2022-09-24T19:22:22.366Z,16.31
2022-09-24T19:24:53.037Z,16.36
2022-09-24T19:27:22.633Z,16.11
2022-09-24T19:29:55.871Z,16.18
2022-09-24T19:32:26.624Z,16.13
2022-09-24T19:34:56.740Z,16.09
2022-09-24T19:37:26.449Z,16.17
2022-09-24T19:39:56.120Z,16.19
2022-09-24T19:42:26.674Z,16.21
2022-09-24T19:44:58.987Z,16.16
2022-09-24T19:47:28.733Z,16.07
2022-09-24T19:49:58.481Z,16.00
2022-09-24T19:52:28.207Z,16.07
2022-09-24T19:54:57.953Z,16.05
2022-09-24T19:57:27.982Z,16.12
2022-09-24T20:00:00.312Z,16.08
2022-09-24T20:02:30.142Z,16.07
2022-09-24T20:04:59.899Z,15.87
2022-09-24T20:07:29.619Z,15.99
2022-09-24T20:09:59.328Z,16.03
2022-09-24T20:12:29.580Z,15.92
2022-09-24T20:15:02.274Z,15.95
2022-09-24T20:17:33.981Z,15.75
2022-09-24T20:20:04.147Z,16.04
2022-09-24T20:22:35.004Z,16.01
2022-09-24T20:25:04.646Z,15.84
2022-09-24T20:27:47.502Z,15.98
2022-09-24T20:30:23.969Z,16.00
2022-09-24T20:32:54.650Z,15.95
2022-09-24T20:35:24.292Z,15.96
2022-09-24T20:37:53.992Z,16.00
2022-09-24T20:40:23.757Z,16.02
2022-09-24T20:42:53.498Z,15.96
2022-09-24T20:45:25.817Z,16.03
2022-09-24T20:47:55.554Z,15.84
2022-09-24T20:50:25.195Z,15.83
2022-09-24T20:52:54.975Z,15.86
2022-09-24T20:55:24.993Z,15.88
2022-09-24T20:57:54.888Z,15.82
2022-09-24T21:00:34.154Z,15.75
2022-09-24T21:03:20.015Z,15.72
2022-09-24T21:05:55.334Z,15.70
2022-09-24T21:08:24.997Z,15.72
2022-09-24T21:11:03.079Z,15.72
2022-09-24T21:13:33.845Z,15.67
2022-09-24T21:16:06.640Z,15.70
2022-09-24T21:18:40.647Z,15.72
2022-09-24T21:21:14.343Z,15.67
2022-09-24T21:23:45.756Z,15.68
2022-09-24T21:26:18.560Z,15.70
2022-09-24T21:28:49.616Z,15.64
2022-09-24T21:31:28.776Z,15.73
2022-09-24T21:33:59.179Z,15.72
2022-09-24T21:36:31.777Z,15.70
2022-09-24T21:39:03.692Z,15.66
2022-09-24T21:41:35.301Z,15.65
2022-09-24T21:44:05.995Z,15.68
2022-09-24T21:46:40.553Z,15.72
2022-09-24T21:49:10.442Z,15.74
2022-09-24T21:51:43.478Z,15.82
2022-09-24T21:54:17.585Z,15.72
2022-09-24T21:56:48.244Z,15.51
2022-09-24T21:59:32.076Z,15.63
2022-09-24T22:02:05.384Z,15.70
2022-09-24T22:04:37.221Z,15.71
2022-09-24T22:07:06.898Z,15.71
2022-09-24T22:09:36.766Z,15.63
2022-09-24T22:12:07.520Z,15.57
2022-09-24T22:14:38.183Z,15.56
2022-09-24T22:17:11.165Z,15.36
2022-09-24T22:19:41.044Z,15.39
2022-09-24T22:22:10.684Z,15.38
2022-09-24T22:24:40.411Z,15.42
2022-09-24T22:27:10.301Z,15.30
2022-09-24T22:29:41.057Z,15.40
2022-09-24T22:32:15.310Z,15.46
2022-09-24T22:34:58.501Z,15.27
2022-09-24T22:37:32.242Z,15.54
2022-09-24T22:40:02.330Z,15.51
2022-09-24T22:42:33.073Z,15.58
2022-09-24T22:45:06.554Z,15.42
2022-09-24T22:47:42.757Z,15.46
2022-09-24T22:50:12.999Z,15.36
2022-09-24T22:52:46.083Z,15.29
2022-09-24T22:55:15.777Z,15.24
2022-09-24T22:57:45.447Z,15.16
2022-09-24T23:00:18.950Z,15.15
2022-09-24T23:02:51.289Z,15.12
2022-09-24T23:05:22.157Z,15.07
2022-09-24T23:07:55.052Z,15.06
2022-09-24T23:10:30.138Z,14.98
2022-09-24T23:13:03.065Z,14.94
2022-09-24T23:15:36.065Z,14.93
2022-09-24T23:18:08.481Z,14.86
2022-09-24T23:20:38.141Z,14.88
2022-09-24T23:23:07.867Z,14.90
2022-09-24T23:25:38.633Z,14.90
2022-09-24T23:28:09.314Z,14.75
2022-09-24T23:30:39.094Z,14.96
2022-09-24T23:33:11.424Z,14.96
2022-09-24T23:35:41.121Z,14.95
2022-09-24T23:38:12.233Z,14.95
2022-09-24T23:40:42.033Z,14.86
2022-09-24T23:43:13.031Z,14.99
2022-09-24T23:45:42.818Z,14.96
2022-09-24T23:48:18.055Z,14.83
2022-09-24T23:50:47.915Z,14.88
2022-09-24T23:53:19.299Z,14.97
2022-09-24T23:55:50.175Z,14.98
2022-09-24T23:58:22.658Z,15.01
